Time;durP1;ratioP1;P1;durP2;ratioP2;P2;SDS_P1;SDS_P2;PMS_P1;PMS_P2;Temp;Humidity;BMP_temperature;BMP_pressure;BME280_temperature;BME280_humidity;BME280_pressure;Samples;Min_cycle;Max_cycle;Signal;HPM_P1;HPM_P2
2022/09/18 00:01:25;;;;;;;4.50;2.30;;;;;;;10.23;100.00;99718.94;4992045;28;20045;-77
2022/09/18 00:03:56;;;;;;;3.50;2.30;;;;;;;10.22;100.00;99711.94;4987418;28;20069;-78
2022/09/18 00:06:26;;;;;;;3.17;2.88;;;;;;;10.22;100.00;99701.38;5008107;28;20111;-78
2022/09/18 00:08:54;;;;;;;3.72;2.33;;;;;;;10.24;100.00;99702.19;4973671;28;20103;-78
2022/09/18 00:11:23;;;;;;;6.22;2.72;;;;;;;10.28;100.00;99705.59;4992691;28;20053;-78
2022/09/18 00:13:50;;;;;;;4.00;1.98;;;;;;;10.30;100.00;99706.38;4972159;28;20042;-77
2022/09/18 00:16:18;;;;;;;5.35;2.25;;;;;;;10.21;100.00;99710.19;4996962;28;20490;-78
2022/09/18 00:18:53;;;;;;;3.65;2.30;;;;;;;10.19;100.00;99717.28;4989282;28;20037;-78
2022/09/18 00:21:25;;;;;;;2.65;1.88;;;;;;;10.22;100.00;99727.78;4989635;28;20053;-78
2022/09/18 00:23:54;;;;;;;3.25;2.03;;;;;;;10.29;100.00;99723.16;4988650;28;20048;-77
2022/09/18 00:26:21;;;;;;;2.65;1.63;;;;;;;10.27;100.00;99722.34;4988039;28;20608;-77
2022/09/18 00:28:51;;;;;;;4.70;1.70;;;;;;;10.22;100.00;99721.59;4984934;28;20040;-78
2022/09/18 00:31:20;;;;;;;3.80;2.47;;;;;;;10.23;100.00;99715.44;5005369;28;20095;-78
2022/09/18 00:33:51;;;;;;;2.25;1.80;;;;;;;10.19;100.00;99732.28;4974627;28;20088;-78
2022/09/18 00:36:20;;;;;;;2.58;1.80;;;;;;;10.21;100.00;99727.78;4994068;28;20468;-78
2022/09/18 00:38:48;;;;;;;3.55;1.60;;;;;;;10.21;100.00;99728.66;5004826;28;20053;-77
2022/09/18 00:41:26;;;;;;;4.50;1.50;;;;;;;10.28;100.00;99722.28;4968505;28;20046;-78
2022/09/18 00:44:12;;;;;;;3.38;1.98;;;;;;;10.26;100.00;99737.31;4990933;28;20490;-78
2022/09/18 00:46:39;;;;;;;3.97;1.50;;;;;;;10.26;100.00;99736.47;5003764;28;20041;-77
2022/09/18 00:49:17;;;;;;;1.77;1.10;;;;;;;10.28;100.00;99745.19;5003412;28;20046;-77
2022/09/18 00:51:47;;;;;;;3.65;1.23;;;;;;;10.09;100.00;99740.50;4984136;28;20695;-78
2022/09/18 00:54:21;;;;;;;3.30;1.17;;;;;;;10.10;100.00;99739.59;4987158;28;20041;-78
2022/09/18 00:56:52;;;;;;;1.92;1.25;;;;;;;10.13;100.00;99751.81;4991842;28;20060;-78
2022/09/18 00:59:23;;;;;;;0.88;0.80;;;;;;;10.13;100.00;99749.16;4971672;28;20140;-77
2022/09/18 01:01:50;;;;;;;0.80;0.60;;;;;;;10.16;100.00;99741.13;5003815;28;20038;-77
2022/09/18 01:04:17;;;;;;;0.85;0.60;;;;;;;10.01;100.00;99744.31;4981913;28;20042;-77
2022/09/18 01:07:16;;;;;;;1.50;0.70;;;;;;;10.01;100.00;99742.53;4976532;28;20045;-77
2022/09/18 01:10:01;;;;;;;1.88;0.60;;;;;;;10.20;100.00;99741.91;5002789;28;20042;-79
2022/09/18 01:12:38;;;;;;;3.25;1.05;;;;;;;10.20;100.00;99750.69;5002198;28;20184;-78
2022/09/18 01:15:21;;;;;;;1.70;0.40;;;;;;;10.11;100.00;99751.84;4987741;28;20107;-78
2022/09/18 01:17:57;;;;;;;0.75;0.60;;;;;;;10.08;100.00;99753.72;5014415;28;20045;-78
2022/09/18 01:20:39;;;;;;;1.45;0.50;;;;;;;10.05;100.00;99752.06;4989411;28;20037;-78
2022/09/18 01:23:16;;;;;;;0.55;0.40;;;;;;;10.03;100.00;99747.75;4993667;28;20079;-78
2022/09/18 01:26:00;;;;;;;0.43;0.40;;;;;;;9.94;100.00;99748.91;5008774;28;20498;-77
2022/09/18 01:28:37;;;;;;;0.40;0.25;;;;;;;9.92;100.00;99752.47;5020608;28;20057;-77
2022/09/18 01:31:08;;;;;;;0.30;0.28;;;;;;;9.88;100.00;99757.00;4994959;28;20463;-78
2022/09/18 01:33:44;;;;;;;0.40;0.40;;;;;;;9.87;100.00;99758.78;4991226;28;20033;-76
2022/09/18 01:36:14;;;;;;;0.82;0.30;;;;;;;9.54;100.00;99765.97;4989443;28;20406;-77
2022/09/18 01:38:47;;;;;;;0.35;0.30;;;;;;;9.62;100.00;99762.25;4977532;28;20392;-77
2022/09/18 01:41:19;;;;;;;0.90;0.30;;;;;;;9.56;100.00;99769.44;4991272;28;20049;-76
2022/09/18 01:43:54;;;;;;;1.48;0.38;;;;;;;9.56;100.00;99769.44;4985380;28;20499;-76
2022/09/18 01:46:21;;;;;;;1.67;0.55;;;;;;;9.47;100.00;99769.72;4968213;28;20490;-76
2022/09/18 01:49:02;;;;;;;0.25;0.25;;;;;;;9.41;100.00;99759.34;5022845;28;20033;-77
2022/09/18 01:51:35;;;;;;;0.55;0.35;;;;;;;9.36;100.00;99768.31;5004527;28;20525;-76
2022/09/18 01:54:11;;;;;;;1.00;0.25;;;;;;;9.28;100.00;99773.81;4968223;28;20046;-77
2022/09/18 01:56:43;;;;;;;0.60;0.40;;;;;;;9.25;100.00;99768.63;4973956;28;20076;-76
2022/09/18 01:59:14;;;;;;;1.33;0.30;;;;;;;9.32;100.00;99776.28;4992192;28;20477;-76
2022/09/18 02:01:42;;;;;;;2.55;0.38;;;;;;;9.38;100.00;99770.00;4986936;28;20131;-76
2022/09/18 02:04:22;;;;;;;0.32;0.22;;;;;;;9.42;100.00;99774.28;4987153;28;20133;-76
2022/09/18 02:07:16;;;;;;;0.88;0.40;;;;;;;9.30;100.00;99759.66;4967643;28;20502;-76
2022/09/18 02:09:43;;;;;;;0.98;0.30;;;;;;;9.30;100.00;99766.72;5002232;28;20491;-76
2022/09/18 02:12:15;;;;;;;2.35;0.43;;;;;;;9.43;100.00;99757.53;4970239;28;20100;-77
2022/09/18 02:14:45;;;;;;;0.30;0.30;;;;;;;9.36;100.00;99758.63;4998879;28;20038;-77
2022/09/18 02:17:36;;;;;;;0.60;0.40;;;;;;;9.44;100.00;99763.69;4970430;28;20053;-77
2022/09/18 02:20:09;;;;;;;1.17;0.32;;;;;;;9.40;100.00;99754.97;4986592;28;20041;-76
2022/09/18 02:22:36;;;;;;;1.48;0.38;;;;;;;9.34;100.00;99752.56;4987365;28;20438;-77
2022/09/18 02:25:07;;;;;;;1.15;0.52;;;;;;;9.41;100.00;99753.19;4995113;28;20038;-77
2022/09/18 02:27:35;;;;;;;1.75;0.63;;;;;;;9.53;100.00;99753.72;4994494;28;20049;-76
2022/09/18 02:30:05;;;;;;;1.27;0.32;;;;;;;9.48;100.00;99747.69;4985326;28;20140;-76
2022/09/18 02:32:34;;;;;;;0.60;0.50;;;;;;;9.40;100.00;99752.34;5009798;28;20041;-76
2022/09/18 02:35:02;;;;;;;1.20;0.60;;;;;;;9.43;100.00;99752.28;4992154;28;20446;-76
2022/09/18 02:37:35;;;;;;;0.77;0.47;;;;;;;9.51;100.00;99758.19;4976548;28;20041;-77
2022/09/18 02:40:08;;;;;;;2.70;0.80;;;;;;;9.49;100.00;99748.56;5009560;28;20049;-76
2022/09/18 02:42:47;;;;;;;0.80;0.60;;;;;;;9.56;100.00;99748.31;5001853;28;20050;-77
2022/09/18 02:45:40;;;;;;;0.73;0.65;;;;;;;9.49;100.00;99754.69;5006093;28;20041;-76
2022/09/18 02:48:18;;;;;;;1.63;0.80;;;;;;;9.58;100.00;99761.47;4994938;28;20041;-78
2022/09/18 02:50:55;;;;;;;1.05;0.80;;;;;;;9.59;100.00;99756.16;4990338;28;20042;-77
2022/09/18 02:53:29;;;;;;;2.22;0.90;;;;;;;9.59;100.00;99750.91;4992045;28;20052;-77
2022/09/18 02:56:06;;;;;;;4.07;1.25;;;;;;;9.67;100.00;99753.28;5002780;28;20066;-76
2022/09/18 02:58:49;;;;;;;4.35;1.30;;;;;;;9.72;100.00;99754.00;4982020;28;20480;-76
2022/09/18 03:01:17;;;;;;;3.33;1.20;;;;;;;9.64;100.00;99756.00;5006153;28;20494;-76
2022/09/18 03:03:44;;;;;;;2.95;1.27;;;;;;;9.66;100.00;99756.81;4979471;28;20516;-76
2022/09/18 03:06:11;;;;;;;2.60;1.40;;;;;;;9.64;100.00;99755.16;4973709;28;20402;-76
2022/09/18 03:08:38;;;;;;;5.20;1.50;;;;;;;9.69;100.00;99769.06;4994714;28;20041;-76
2022/09/18 03:11:05;;;;;;;6.78;2.08;;;;;;;9.71;100.00;99761.97;5075950;23;20041;-77
2022/09/18 03:13:32;;;;;;;3.97;1.75;;;;;;;9.68;100.00;99776.13;5015317;28;20037;-76
2022/09/18 03:15:58;;;;;;;6.25;2.17;;;;;;;9.58;100.00;99762.34;5008185;28;20053;-77
2022/09/18 03:18:25;;;;;;;7.30;1.70;;;;;;;9.73;100.00;99755.72;4992608;28;20410;-76
2022/09/18 03:20:52;;;;;;;4.45;2.17;;;;;;;9.70;100.00;99768.16;4970654;28;20054;-77
2022/09/18 03:23:19;;;;;;;6.35;1.80;;;;;;;9.75;100.00;99766.22;4988634;28;20050;-76
2022/09/18 03:25:50;;;;;;;3.88;1.63;;;;;;;9.75;100.00;99772.38;4991383;28;20438;-76
2022/09/18 03:28:17;;;;;;;6.15;1.88;;;;;;;9.71;100.00;99761.97;4990137;28;20046;-76
2022/09/18 03:30:44;;;;;;;6.85;2.00;;;;;;;9.76;100.00;99773.25;5006274;28;20045;-76
2022/09/18 03:33:11;;;;;;;8.23;2.28;;;;;;;9.75;100.00;99771.50;4979989;28;20178;-77
2022/09/18 03:35:37;;;;;;;7.05;2.08;;;;;;;9.81;100.00;99768.66;4990275;28;20049;-77
2022/09/18 03:38:04;;;;;;;5.85;1.88;;;;;;;9.85;100.00;99770.31;4993080;28;20041;-76
2022/09/18 03:40:31;;;;;;;7.97;2.25;;;;;;;9.83;100.00;99759.78;4992950;28;20046;-77
2022/09/18 03:43:01;;;;;;;3.95;1.70;;;;;;;9.88;100.00;99772.84;5006769;28;20553;-76
2022/09/18 03:45:27;;;;;;;5.60;2.25;;;;;;;9.92;100.00;99777.13;4973341;28;20042;-77
2022/09/18 03:47:54;;;;;;;5.70;1.90;;;;;;;9.84;100.00;99777.38;4974565;28;20068;-76
2022/09/18 03:50:21;;;;;;;9.05;2.75;;;;;;;9.79;100.00;99779.28;4981626;28;20046;-77
2022/09/18 03:52:47;;;;;;;5.97;2.28;;;;;;;9.84;100.00;99774.72;4966205;28;20584;-76
2022/09/18 03:55:20;;;;;;;8.05;2.60;;;;;;;9.78;100.00;99772.28;5002106;28;20408;-77
2022/09/18 03:57:46;;;;;;;10.15;2.53;;;;;;;9.69;100.00;99780.47;4984338;28;20088;-76
2022/09/18 04:00:13;;;;;;;11.43;2.47;;;;;;;9.79;100.00;99778.41;5006285;28;20042;-76
2022/09/18 04:02:40;;;;;;;8.85;2.65;;;;;;;9.70;100.00;99787.47;4996915;28;20080;-77
2022/09/18 04:05:08;;;;;;;11.25;2.42;;;;;;;9.68;100.00;99788.44;4981923;28;20088;-78
2022/09/18 04:07:34;;;;;;;8.70;2.55;;;;;;;9.57;100.00;99792.25;5006881;28;20053;-76
2022/09/18 04:10:02;;;;;;;7.22;2.75;;;;;;;9.64;100.00;99795.56;4989760;28;20504;-76
2022/09/18 04:12:28;;;;;;;15.25;2.88;;;;;;;9.48;100.00;99796.94;4984457;28;20038;-77
2022/09/18 04:14:55;;;;;;;5.60;2.58;;;;;;;9.61;100.00;99800.09;4987294;28;20038;-78
2022/09/18 04:17:22;;;;;;;9.00;3.00;;;;;;;9.60;100.00;99796.59;5000943;28;20109;-77
2022/09/18 04:19:49;;;;;;;12.43;3.08;;;;;;;9.53;100.00;99809.09;4990445;28;20050;-76
2022/09/18 04:22:20;;;;;;;9.18;3.05;;;;;;;9.53;100.00;99795.91;4987153;28;20042;-77
2022/09/18 04:24:49;;;;;;;10.32;3.47;;;;;;;9.53;100.00;99800.31;5004502;28;20045;-76
2022/09/18 04:27:16;;;;;;;9.50;2.97;;;;;;;9.57;100.00;99813.34;4983648;28;20062;-76
2022/09/18 04:29:42;;;;;;;11.98;3.40;;;;;;;9.56;100.00;99805.47;4992334;28;20038;-77
2022/09/18 04:32:09;;;;;;;6.32;2.45;;;;;;;9.52;100.00;99814.41;4972693;28;20042;-77
2022/09/18 04:34:38;;;;;;;10.63;3.05;;;;;;;9.50;100.00;99816.19;4988260;28;20043;-77
2022/09/18 04:37:05;;;;;;;8.45;2.55;;;;;;;9.53;100.00;99824.91;4969543;28;20073;-76
2022/09/18 04:39:36;;;;;;;7.10;2.47;;;;;;;9.50;100.00;99816.19;4989737;28;20134;-76
2022/09/18 04:42:03;;;;;;;15.52;2.72;;;;;;;9.48;100.00;99816.25;4979177;28;20038;-76
2022/09/18 04:44:30;;;;;;;13.10;3.13;;;;;;;9.47;100.00;99816.31;4981657;28;20034;-76
2022/09/18 04:46:56;;;;;;;7.95;2.92;;;;;;;9.55;100.00;99824.84;5006358;28;20164;-77
2022/09/18 04:49:23;;;;;;;7.35;2.60;;;;;;;9.60;100.00;99820.31;4986432;28;20403;-77
2022/09/18 04:51:50;;;;;;;7.50;2.63;;;;;;;9.60;100.00;99825.59;4989482;28;20446;-76
2022/09/18 04:54:17;;;;;;;16.42;3.25;;;;;;;9.55;100.00;99832.75;5007880;28;20096;-76
2022/09/18 04:56:43;;;;;;;12.35;3.28;;;;;;;9.62;100.00;99823.75;4991241;28;20057;-77
2022/09/18 04:59:10;;;;;;;8.80;3.13;;;;;;;9.58;100.00;99835.28;4986563;28;20034;-77
2022/09/18 05:01:37;;;;;;;6.63;2.75;;;;;;;9.62;100.00;99838.72;5007953;28;20046;-76
2022/09/18 05:04:03;;;;;;;9.65;3.35;;;;;;;9.59;100.00;99834.41;4991605;28;20129;-78
2022/09/18 05:06:30;;;;;;;13.60;4.45;;;;;;;9.64;100.00;99835.13;4981898;28;20042;-76
2022/09/18 05:08:57;;;;;;;10.65;3.42;;;;;;;9.58;100.00;99840.56;4990274;28;20053;-77
2022/09/18 05:11:23;;;;;;;12.30;3.08;;;;;;;9.55;100.00;99840.66;4983925;28;20048;-77
2022/09/18 05:13:55;;;;;;;14.18;3.60;;;;;;;9.41;100.00;99840.19;4989824;28;20101;-76
2022/09/18 05:16:22;;;;;;;12.40;4.05;;;;;;;9.42;100.00;99840.19;4988223;28;20046;-77
2022/09/18 05:18:50;;;;;;;7.80;2.60;;;;;;;9.47;100.00;99843.53;5003280;28;20041;-76
2022/09/18 05:21:17;;;;;;;9.57;3.65;;;;;;;9.41;100.00;99838.44;4974200;28;20053;-77
2022/09/18 05:23:45;;;;;;;9.02;3.97;;;;;;;9.41;100.00;99841.06;4984525;28;20046;-79
2022/09/18 05:26:12;;;;;;;10.43;4.07;;;;;;;9.35;100.00;99843.91;4980690;28;20779;-77
2022/09/18 05:28:39;;;;;;;7.13;2.83;;;;;;;9.30;100.00;99845.78;4966572;28;20569;-76
2022/09/18 05:31:06;;;;;;;7.70;3.53;;;;;;;9.30;100.00;99845.78;4983960;28;20042;-76
2022/09/18 05:33:33;;;;;;;11.25;3.47;;;;;;;9.29;100.00;99850.19;4969967;28;20403;-78
2022/09/18 05:36:00;;;;;;;7.55;2.85;;;;;;;9.24;100.00;99860.00;4984731;28;20542;-77
2022/09/18 05:38:30;;;;;;;10.40;3.92;;;;;;;9.28;100.00;99852.88;4988276;28;20129;-77
2022/09/18 05:41:00;;;;;;;6.22;3.35;;;;;;;9.40;100.00;99851.66;4982000;28;20403;-79
2022/09/18 05:43:28;;;;;;;9.38;3.22;;;;;;;9.33;100.00;99850.97;5007977;28;20073;-78
2022/09/18 05:45:54;;;;;;;9.30;3.97;;;;;;;9.41;100.00;99856.00;4980445;28;20042;-76
2022/09/18 05:48:21;;;;;;;10.65;3.03;;;;;;;9.35;100.00;99862.34;4968979;28;20100;-79
2022/09/18 05:50:50;;;;;;;9.77;3.97;;;;;;;9.43;100.00;99864.78;4985945;28;20054;-76
2022/09/18 05:53:18;;;;;;;8.27;3.63;;;;;;;9.41;100.00;99866.56;4992083;28;20046;-77
2022/09/18 05:55:45;;;;;;;7.88;2.83;;;;;;;9.35;100.00;99865.00;5005089;28;20041;-77
2022/09/18 05:58:14;;;;;;;12.13;3.45;;;;;;;9.35;100.00;99864.13;4990215;28;20050;-77
2022/09/18 06:00:43;;;;;;;7.30;2.78;;;;;;;9.36;100.00;99865.84;5005477;28;20046;-79
2022/09/18 06:03:12;;;;;;;9.68;3.85;;;;;;;9.45;100.00;99868.22;4998244;28;20096;-77
2022/09/18 06:05:39;;;;;;;10.10;3.38;;;;;;;9.48;100.00;99860.22;4986339;28;20050;-77
2022/09/18 06:08:11;;;;;;;9.05;3.08;;;;;;;9.54;100.00;99866.19;4990623;28;20488;-77
2022/09/18 06:10:39;;;;;;;11.80;3.47;;;;;;;9.61;100.00;99868.66;4971494;28;20066;-77
2022/09/18 06:13:08;;;;;;;9.48;3.92;;;;;;;9.48;100.00;99855.81;4989268;28;20045;-77
2022/09/18 06:15:35;;;;;;;4.75;2.78;;;;;;;9.56;100.00;99859.09;4970556;28;20061;-79
2022/09/18 06:18:03;;;;;;;6.20;3.33;;;;;;;9.58;100.00;99859.03;5002105;28;20710;-77
2022/09/18 06:20:29;;;;;;;8.10;2.67;;;;;;;9.62;100.00;99865.97;5000449;23;20034;-78
2022/09/18 06:23:00;;;;;;;5.65;3.17;;;;;;;9.77;100.00;99862.00;4968708;28;20038;-77
2022/09/18 06:25:30;;;;;;;8.57;3.42;;;;;;;9.82;100.00;99863.59;4954127;28;20418;-77
2022/09/18 06:27:58;;;;;;;10.25;3.42;;;;;;;9.93;100.00;99873.84;4952615;28;20045;-76
2022/09/18 06:30:27;;;;;;;7.28;2.70;;;;;;;9.92;100.00;99874.75;4961044;28;20067;-77
2022/09/18 06:32:55;;;;;;;8.27;2.55;;;;;;;9.93;100.00;99876.47;4953519;28;20043;-76
2022/09/18 06:35:22;;;;;;;7.28;3.17;;;;;;;10.01;100.00;99866.56;4949590;28;20519;-79
2022/09/18 06:37:49;;;;;;;5.57;2.80;;;;;;;9.90;100.00;99871.28;4964550;28;20046;-77
2022/09/18 06:40:15;;;;;;;7.70;2.80;;;;;;;10.11;100.00;99872.41;4965969;28;20053;-77
2022/09/18 06:42:42;;;;;;;5.38;3.20;;;;;;;10.09;100.00;99866.31;4979339;28;20539;-77
2022/09/18 06:45:11;;;;;;;9.52;2.88;;;;;;;10.45;100.00;99863.44;4948439;28;20046;-77
2022/09/18 06:47:38;;;;;;;8.80;2.97;;;;;;;10.92;100.00;99864.47;4965248;28;20038;-78
2022/09/18 06:50:06;;;;;;;6.85;2.67;;;;;;;11.09;100.00;99866.53;4967604;28;20045;-77
2022/09/18 06:52:33;;;;;;;7.65;2.30;;;;;;;10.89;100.00;99861.94;4983127;28;20034;-77
2022/09/18 06:55:00;;;;;;;7.75;2.90;;;;;;;11.07;100.00;99857.78;4960218;28;20053;-77
2022/09/18 06:57:27;;;;;;;8.57;2.58;;;;;;;11.10;100.00;99865.59;4985779;28;20130;-78
2022/09/18 06:59:53;;;;;;;7.10;2.50;;;;;;;10.98;100.00;99873.06;4975550;28;20045;-76
2022/09/18 07:02:20;;;;;;;6.93;2.72;;;;;;;10.84;100.00;99863.88;4969165;28;20048;-77
2022/09/18 07:04:48;;;;;;;7.40;2.60;;;;;;;10.90;100.00;99871.59;4951774;28;20492;-77
2022/09/18 07:07:15;;;;;;;8.27;2.25;;;;;;;10.85;100.00;99876.19;4966416;28;20054;-77
2022/09/18 07:09:41;;;;;;;9.45;2.53;;;;;;;10.90;100.00;99880.38;4971254;28;20503;-77
2022/09/18 07:12:08;;;;;;;6.53;3.05;;;;;;;10.93;100.00;99882.03;4967765;28;20042;-77
2022/09/18 07:14:35;;;;;;;6.68;2.40;;;;;;;10.82;100.00;99879.78;4954524;28;20057;-78
2022/09/18 07:17:02;;;;;;;4.28;2.00;;;;;;;10.89;100.00;99883.94;4977158;28;20117;-79
2022/09/18 07:19:28;;;;;;;7.97;3.47;;;;;;;10.85;100.00;99884.97;4950728;28;20125;-77
2022/09/18 07:21:55;;;;;;;8.00;2.35;;;;;;;10.75;100.00;99886.19;4962013;28;20619;-76
2022/09/18 07:24:22;;;;;;;8.27;2.17;;;;;;;10.85;100.00;99889.41;4969841;28;20042;-77
2022/09/18 07:26:48;;;;;;;9.52;3.72;;;;;;;10.89;100.00;99883.94;4987059;28;20053;-77
2022/09/18 07:29:15;;;;;;;6.80;2.10;;;;;;;10.79;100.00;99886.97;4987315;28;20050;-76
2022/09/18 07:31:42;;;;;;;6.55;2.55;;;;;;;10.85;100.00;99886.75;4967902;28;20047;-77
2022/09/18 07:34:10;;;;;;;5.40;2.05;;;;;;;10.96;100.00;99890.75;4986513;28;20504;-77
2022/09/18 07:36:37;;;;;;;6.15;2.13;;;;;;;11.02;100.00;99875.63;4968659;28;20054;-77
2022/09/18 07:39:04;;;;;;;6.22;2.15;;;;;;;11.21;100.00;99879.31;4970146;28;20046;-77
2022/09/18 07:41:31;;;;;;;7.28;1.92;;;;;;;11.39;100.00;99877.81;4966959;28;20053;-78
2022/09/18 07:43:58;;;;;;;6.20;2.45;;;;;;;11.35;100.00;99873.53;4988154;28;20034;-76
2022/09/18 07:46:25;;;;;;;6.05;2.45;;;;;;;11.30;100.00;99883.41;4971422;28;20046;-76
2022/09/18 07:48:51;;;;;;;9.63;2.08;;;;;;;11.40;100.00;99883.03;4970669;28;20133;-77
2022/09/18 07:51:18;;;;;;;4.95;2.05;;;;;;;11.41;100.00;99882.09;4973382;28;20042;-77
2022/09/18 07:53:51;;;;;;;8.43;2.58;;;;;;;11.31;100.00;99895.72;4962242;28;20448;-77
2022/09/18 07:56:18;;;;;;;5.57;1.90;;;;;;;11.38;100.00;99887.53;4986409;28;20085;-77
2022/09/18 07:58:44;;;;;;;9.50;2.00;;;;;;;11.43;100.00;99890.84;4966584;28;20415;-77
2022/09/18 08:01:11;;;;;;;7.65;3.17;;;;;;;11.29;100.00;99890.50;4969346;28;20093;-78
2022/09/18 08:03:38;;;;;;;9.32;2.05;;;;;;;11.41;100.00;99882.09;4968547;28;20140;-77
2022/09/18 08:06:07;;;;;;;5.20;1.90;;;;;;;11.26;100.00;99887.94;4981116;28;20062;-77
2022/09/18 08:08:36;;;;;;;7.20;1.80;;;;;;;11.39;100.00;99881.31;4955913;28;20092;-76
2022/09/18 08:11:03;;;;;;;5.38;1.50;;;;;;;11.64;100.00;99888.34;4953837;28;20069;-77
2022/09/18 08:13:31;;;;;;;10.68;2.28;;;;;;;11.70;100.00;99881.06;4975654;28;20558;-77
2022/09/18 08:15:57;;;;;;;4.72;1.77;;;;;;;11.78;100.00;99880.75;4960692;28;20581;-77
2022/09/18 08:18:24;;;;;;;8.93;2.00;;;;;;;11.56;100.00;99881.56;4973176;28;20415;-77
2022/09/18 08:20:55;;;;;;;3.60;1.33;;;;;;;11.64;100.00;99891.84;4964994;28;20078;-76
2022/09/18 08:23:21;;;;;;;6.15;1.70;;;;;;;11.63;100.00;99884.84;4970121;28;20038;-76
2022/09/18 08:25:48;;;;;;;8.85;1.90;;;;;;;11.66;100.00;99886.50;4969477;28;20513;-76
2022/09/18 08:28:18;;;;;;;8.48;1.98;;;;;;;11.63;100.00;99881.34;4983893;28;20066;-77
2022/09/18 08:30:45;;;;;;;7.93;1.85;;;;;;;11.78;100.00;99876.34;4985960;28;20073;-77
2022/09/18 08:33:12;;;;;;;4.60;1.80;;;;;;;11.88;100.00;99874.22;4968063;28;20050;-77
2022/09/18 08:35:38;;;;;;;5.18;2.03;;;;;;;11.99;100.00;99872.03;4965643;28;20050;-77
2022/09/18 08:38:06;;;;;;;6.82;1.55;;;;;;;12.02;100.00;99873.69;4982551;28;20561;-77
2022/09/18 08:41:04;;;;;;;6.03;1.77;;;;;;;12.13;100.00;99886.53;4970007;28;20113;-77
2022/09/18 08:43:51;;;;;;;9.05;2.47;;;;;;;12.26;99.36;99870.06;4979169;28;20058;-76
2022/09/18 08:46:41;;;;;;;4.25;1.67;;;;;;;12.13;99.91;99873.28;4996732;28;20038;-78
2022/09/18 08:49:22;;;;;;;10.55;1.60;;;;;;;12.30;98.62;99871.69;4981240;28;20055;-78
2022/09/18 08:52:05;;;;;;;5.03;2.25;;;;;;;12.60;100.00;99874.00;4964388;28;20116;-78
2022/09/18 08:54:54;;;;;;;4.55;1.33;;;;;;;12.89;99.43;99876.31;4951880;28;20046;-77
2022/09/18 08:57:28;;;;;;;7.90;1.80;;;;;;;12.70;92.16;99872.72;4985381;28;20054;-78
2022/09/18 09:00:09;;;;;;;5.07;1.67;;;;;;;12.81;94.47;99875.75;4958932;28;20038;-76
2022/09/18 09:02:38;;;;;;;5.00;2.03;;;;;;;12.81;91.76;99877.56;4941979;28;20142;-76
2022/09/18 09:05:09;;;;;;;4.57;1.38;;;;;;;12.71;89.42;99874.44;4970042;28;21547;-76
2022/09/18 09:08:18;;;;;;;5.53;1.63;;;;;;;12.70;87.75;99879.81;4969614;28;20041;-76
2022/09/18 09:11:06;;;;;;;5.13;1.60;;;;;;;12.81;91.87;99874.91;4950966;28;20500;-76
2022/09/18 09:13:48;;;;;;;4.47;1.38;;;;;;;12.93;93.23;99871.72;4985187;28;20050;-76
2022/09/18 09:16:22;;;;;;;5.20;1.58;;;;;;;13.11;88.59;99872.72;4985394;28;20065;-76
2022/09/18 09:19:25;;;;;;;6.05;1.85;;;;;;;13.47;88.31;99865.84;4968987;28;20129;-77
2022/09/18 09:22:06;;;;;;;7.45;2.25;;;;;;;13.59;85.93;99884.78;4981743;28;20053;-77
2022/09/18 09:25:01;;;;;;;4.80;1.50;;;;;;;13.48;83.70;99864.91;4984735;28;20035;-77
2022/09/18 09:27:33;;;;;;;5.50;2.13;;;;;;;13.51;87.01;99867.41;4983482;28;20772;-77
2022/09/18 09:30:10;;;;;;;5.68;1.92;;;;;;;13.58;84.38;99867.13;4965112;28;20089;-77
2022/09/18 09:32:47;;;;;;;6.50;1.98;;;;;;;13.69;86.01;99867.50;4961180;28;20039;-77
2022/09/18 09:35:30;;;;;;;5.75;1.80;;;;;;;13.70;85.14;99850.63;4954320;28;20046;-77
2022/09/18 09:38:03;;;;;;;4.80;1.83;;;;;;;13.49;80.04;99858.66;4963175;28;20574;-77
2022/09/18 09:40:49;;;;;;;3.90;1.50;;;;;;;13.42;84.03;99857.22;4984878;28;20050;-77
2022/09/18 09:43:30;;;;;;;9.07;2.28;;;;;;;13.72;84.29;99854.09;4967990;28;20050;-77
2022/09/18 09:46:02;;;;;;;5.95;1.83;;;;;;;13.69;82.92;99857.75;4967209;28;20042;-76
2022/09/18 09:49:01;;;;;;;5.18;1.73;;;;;;;13.35;82.76;99861.06;4969200;28;20181;-77
2022/09/18 09:51:56;;;;;;;4.90;1.77;;;;;;;13.42;84.31;99859.88;4965658;28;20777;-77
2022/09/18 09:54:23;;;;;;;4.05;1.50;;;;;;;13.66;84.58;99857.03;4987815;28;20541;-77
2022/09/18 09:57:16;;;;;;;8.27;2.22;;;;;;;13.71;80.97;99858.56;4964233;28;20098;-77
2022/09/18 10:00:20;;;;;;;9.02;1.65;;;;;;;13.69;77.99;99868.34;4961129;28;20097;-78
2022/09/18 10:03:26;;;;;;;5.32;1.48;;;;;;;13.50;78.93;99870.13;4949121;28;20039;-77
2022/09/18 10:06:22;;;;;;;5.18;1.95;;;;;;;13.48;76.85;99862.25;4978349;28;20043;-76
2022/09/18 10:08:55;;;;;;;3.28;1.33;;;;;;;13.56;81.12;99863.69;4964298;28;20035;-77
2022/09/18 10:11:22;;;;;;;4.88;2.40;;;;;;;13.40;78.77;99872.34;4946993;28;20039;-78
2022/09/18 10:14:02;;;;;;;3.47;1.35;;;;;;;13.45;78.05;99874.78;4968506;28;20054;-77
2022/09/18 10:16:33;;;;;;;4.10;1.30;;;;;;;13.21;76.29;99863.50;4951735;28;20426;-78
2022/09/18 10:19:00;;;;;;;4.80;1.63;;;;;;;13.47;81.77;99862.31;4955148;28;20066;-77
2022/09/18 10:21:28;;;;;;;5.10;1.52;;;;;;;13.65;78.20;99872.09;4967798;28;20073;-78
2022/09/18 10:24:02;;;;;;;3.95;1.48;;;;;;;13.82;79.15;99868.66;4982198;28;20058;-77
2022/09/18 10:26:35;;;;;;;7.30;1.40;;;;;;;13.55;76.54;99875.25;4979661;28;20104;-77
2022/09/18 10:29:01;;;;;;;5.78;1.42;;;;;;;13.41;75.29;99871.41;4953892;28;20054;-77
2022/09/18 10:31:48;;;;;;;5.40;1.40;;;;;;;13.50;80.43;99873.66;4953148;28;20046;-77
2022/09/18 10:34:43;;;;;;;4.43;2.65;;;;;;;13.37;83.58;99890.16;4985429;28;20050;-77
2022/09/18 10:37:26;;;;;;;;;;;;;;;13.14;89.95;99881.41;4985882;28;20050;-77
2022/09/18 10:40:01;;;;;;;9.88;4.32;;;;;;;12.98;92.32;99882.13;4984735;28;19928;-77
2022/09/18 10:42:28;;;;;;;;;;;;;;;12.80;94.71;99883.78;4986804;28;20061;-77
2022/09/18 10:44:57;;;;;;;6.35;2.53;;;;;;;12.91;100.00;99882.41;4949991;28;19930;-77
2022/09/18 10:47:32;;;;;;;6.40;3.10;;;;;;;13.31;100.00;99872.75;4988133;28;20062;-77
2022/09/18 10:50:05;;;;;;;2.22;1.20;;;;;;;13.66;95.78;99872.97;4968109;28;20128;-77
2022/09/18 10:52:35;;;;;;;6.38;1.55;;;;;;;14.04;92.42;99868.50;4985561;28;20038;-77
2022/09/18 10:55:05;;;;;;;3.75;1.42;;;;;;;14.18;89.28;99860.75;4970454;28;20491;-77
2022/09/18 10:57:37;;;;;;;5.22;2.35;;;;;;;14.43;88.28;99864.88;5003858;28;20058;-77
2022/09/18 11:00:24;;;;;;;6.90;5.05;;;;;;;14.59;80.38;99863.22;4955889;28;20039;-77
2022/09/18 11:03:00;;;;;;;4.10;1.92;;;;;;;14.47;80.97;99867.38;4999702;28;20518;-77
2022/09/18 11:05:35;;;;;;;7.18;5.22;;;;;;;14.24;84.10;99872.91;4969992;28;20487;-78
2022/09/18 11:08:13;;;;;;;5.50;1.83;;;;;;;14.14;89.80;99876.94;4968829;28;20092;-77
2022/09/18 11:10:46;;;;;;;4.65;2.05;;;;;;;13.67;88.77;99880.00;4974759;28;20046;-77
2022/09/18 11:13:22;;;;;;;3.95;2.30;;;;;;;13.43;94.49;99876.63;4978413;28;20435;-77
2022/09/18 11:16:01;;;;;;;5.15;1.90;;;;;;;13.31;98.82;99874.56;4966840;28;20049;-78
2022/09/18 11:18:30;;;;;;;3.05;2.10;;;;;;;13.28;99.65;99869.34;4971882;28;20070;-78
2022/09/18 11:20:59;;;;;;;6.45;1.92;;;;;;;13.65;100.00;99868.59;4969381;28;20077;-78
2022/09/18 11:23:32;;;;;;;5.82;1.58;;;;;;;13.86;95.26;99864.94;4972800;28;20054;-78
2022/09/18 11:26:19;;;;;;;2.92;1.50;;;;;;;14.22;94.78;99869.47;4977239;28;20042;-77
2022/09/18 11:29:15;;;;;;;3.92;2.05;;;;;;;14.26;91.42;99857.72;4972088;28;20038;-77
2022/09/18 11:31:48;;;;;;;4.60;1.20;;;;;;;14.54;94.63;99855.47;4983626;28;20050;-78
2022/09/18 11:34:43;;;;;;;6.40;2.08;;;;;;;14.44;82.40;99848.84;4971885;28;20042;-77
2022/09/18 11:37:14;;;;;;;1.90;1.23;;;;;;;14.44;86.11;99851.50;4953809;28;21624;-79
2022/09/18 11:39:44;;;;;;;4.22;1.30;;;;;;;14.25;87.75;99859.53;4952831;28;20500;-79
2022/09/18 11:42:13;;;;;;;3.70;1.30;;;;;;;14.09;86.56;99853.22;4986039;28;20042;-78
2022/09/18 11:44:39;;;;;;;2.90;0.93;;;;;;;13.74;83.27;99853.09;4985082;28;20049;-78
2022/09/18 11:47:12;;;;;;;4.00;1.10;;;;;;;13.73;86.48;99856.69;4969946;28;20027;-76
2022/09/18 11:49:42;;;;;;;2.15;1.10;;;;;;;13.82;85.88;99852.75;5004395;28;20094;-76
2022/09/18 11:52:37;;;;;;;4.10;1.05;;;;;;;14.06;83.14;99838.31;4964810;28;20059;-77
2022/09/18 11:55:13;;;;;;;2.85;1.25;;;;;;;14.31;78.55;99835.31;4966445;28;20062;-77